sensor_id;sensor_type;location;lat;lon;timestamp;temperature;humidity
32839;DHT22;19182;41.820;12.808;2024-02-26T00:34:33;4.90;99.90
32839;DHT22;19182;41.820;12.808;2024-02-26T01:50:33;4.00;99.90
32839;DHT22;19182;41.820;12.808;2024-02-26T01:53:00;4.10;99.90
32839;DHT22;19182;41.820;12.808;2024-02-26T02:02:47;3.90;99.90
32839;DHT22;19182;41.820;12.808;2024-02-26T02:05:15;4.00;99.90
32839;DHT22;19182;41.820;12.808;2024-02-26T02:32:15;4.10;99.90
32839;DHT22;19182;41.820;12.808;2024-02-26T02:34:43;4.10;99.90
32839;DHT22;19182;41.820;12.808;2024-02-26T03:55:25;4.40;99.90
32839;DHT22;19182;41.820;12.808;2024-02-26T04:00:19;4.30;99.90
32839;DHT22;19182;41.820;12.808;2024-02-26T04:05:11;4.50;99.90
32839;DHT22;19182;41.820;12.808;2024-02-26T04:07:37;4.60;99.90
32839;DHT22;19182;41.820;12.808;2024-02-26T04:10:03;4.70;99.90
32839;DHT22;19182;41.820;12.808;2024-02-26T04:12:31;4.80;99.90
32839;DHT22;19182;41.820;12.808;2024-02-26T04:14:57;4.90;99.90
32839;DHT22;19182;41.820;12.808;2024-02-26T04:17:23;5.20;99.90
32839;DHT22;19182;41.820;12.808;2024-02-26T04:22:22;5.30;99.90
32839;DHT22;19182;41.820;12.808;2024-02-26T04:24:49;5.20;99.90
32839;DHT22;19182;41.820;12.808;2024-02-26T04:27:14;5.30;99.90
32839;DHT22;19182;41.820;12.808;2024-02-26T04:29:40;5.40;99.90
32839;DHT22;19182;41.820;12.808;2024-02-26T04:32:06;5.40;99.90
32839;DHT22;19182;41.820;12.808;2024-02-26T04:36:58;5.40;99.90
32839;DHT22;19182;41.820;12.808;2024-02-26T04:39:23;5.50;99.90
32839;DHT22;19182;41.820;12.808;2024-02-26T04:41:49;5.50;99.90
32839;DHT22;19182;41.820;12.808;2024-02-26T04:44:15;5.50;99.90
32839;DHT22;19182;41.820;12.808;2024-02-26T04:46:40;5.50;99.90
32839;DHT22;19182;41.820;12.808;2024-02-26T04:49:06;5.50;99.90
32839;DHT22;19182;41.820;12.808;2024-02-26T04:51:31;5.60;99.90
32839;DHT22;19182;41.820;12.808;2024-02-26T04:53:59;5.70;99.90
32839;DHT22;19182;41.820;12.808;2024-02-26T04:56:25;5.60;99.90
32839;DHT22;19182;41.820;12.808;2024-02-26T04:58:51;5.70;99.90
32839;DHT22;19182;41.820;12.808;2024-02-26T05:01:16;5.60;99.90
32839;DHT22;19182;41.820;12.808;2024-02-26T05:03:46;5.60;99.90
32839;DHT22;19182;41.820;12.808;2024-02-26T05:06:11;5.60;99.90
32839;DHT22;19182;41.820;12.808;2024-02-26T05:08:37;5.70;99.90
32839;DHT22;19182;41.820;12.808;2024-02-26T05:11:04;5.70;99.90
32839;DHT22;19182;41.820;12.808;2024-02-26T05:13:30;5.70;99.90
32839;DHT22;19182;41.820;12.808;2024-02-26T05:15:56;5.70;99.90
32839;DHT22;19182;41.820;12.808;2024-02-26T05:18:24;5.70;99.90
32839;DHT22;19182;41.820;12.808;2024-02-26T05:20:50;5.70;99.90
32839;DHT22;19182;41.820;12.808;2024-02-26T05:23:16;5.70;99.90
32839;DHT22;19182;41.820;12.808;2024-02-26T05:25:41;5.70;99.90
32839;DHT22;19182;41.820;12.808;2024-02-26T05:28:07;5.70;99.90
32839;DHT22;19182;41.820;12.808;2024-02-26T05:30:33;5.70;99.90
32839;DHT22;19182;41.820;12.808;2024-02-26T05:33:03;5.70;99.90
32839;DHT22;19182;41.820;12.808;2024-02-26T05:35:28;5.70;99.90
32839;DHT22;19182;41.820;12.808;2024-02-26T05:42:55;5.80;99.90
32839;DHT22;19182;41.820;12.808;2024-02-26T05:47:48;5.60;99.90
32839;DHT22;19182;41.820;12.808;2024-02-26T05:50:15;5.60;99.90
32839;DHT22;19182;41.820;12.808;2024-02-26T06:00:04;5.50;99.90
32839;DHT22;19182;41.820;12.808;2024-02-26T06:02:39;5.50;99.90
32839;DHT22;19182;41.820;12.808;2024-02-26T06:05:05;5.50;99.90
32839;DHT22;19182;41.820;12.808;2024-02-26T06:07:32;5.40;99.90
32839;DHT22;19182;41.820;12.808;2024-02-26T06:10:02;5.50;99.90
32839;DHT22;19182;41.820;12.808;2024-02-26T06:12:30;5.40;99.90
32839;DHT22;19182;41.820;12.808;2024-02-26T06:14:57;5.40;99.90
32839;DHT22;19182;41.820;12.808;2024-02-26T06:17:26;5.40;99.90
32839;DHT22;19182;41.820;12.808;2024-02-26T06:22:19;5.50;99.90
32839;DHT22;19182;41.820;12.808;2024-02-26T06:24:45;5.60;99.90
32839;DHT22;19182;41.820;12.808;2024-02-26T06:27:11;5.60;99.90
32839;DHT22;19182;41.820;12.808;2024-02-26T06:29:38;6.20;99.90
32839;DHT22;19182;41.820;12.808;2024-02-26T06:32:05;6.70;99.90
32839;DHT22;19182;41.820;12.808;2024-02-26T06:34:31;7.00;99.90
32839;DHT22;19182;41.820;12.808;2024-02-26T06:39:32;7.60;99.90
32839;DHT22;19182;41.820;12.808;2024-02-26T06:41:58;7.80;99.90
32839;DHT22;19182;41.820;12.808;2024-02-26T06:44:27;8.30;99.90
32839;DHT22;19182;41.820;12.808;2024-02-26T06:47:01;9.10;99.90
32839;DHT22;19182;41.820;12.808;2024-02-26T06:49:27;9.60;99.90
32839;DHT22;19182;41.820;12.808;2024-02-26T06:51:53;9.80;99.90
32839;DHT22;19182;41.820;12.808;2024-02-26T06:54:20;10.30;99.90
32839;DHT22;19182;41.820;12.808;2024-02-26T06:56:49;10.30;99.90
32839;DHT22;19182;41.820;12.808;2024-02-26T06:59:17;10.10;99.90
32839;DHT22;19182;41.820;12.808;2024-02-26T07:01:45;9.40;99.90
32839;DHT22;19182;41.820;12.808;2024-02-26T07:04:11;9.10;99.90
32839;DHT22;19182;41.820;12.808;2024-02-26T07:06:37;9.10;99.90
32839;DHT22;19182;41.820;12.808;2024-02-26T07:09:02;9.80;99.90
32839;DHT22;19182;41.820;12.808;2024-02-26T07:13:56;10.30;99.90
32839;DHT22;19182;41.820;12.808;2024-02-26T07:18:47;10.60;99.90
32839;DHT22;19182;41.820;12.808;2024-02-26T07:21:13;10.50;99.90
32839;DHT22;19182;41.820;12.808;2024-02-26T07:26:08;11.60;99.90
32839;DHT22;19182;41.820;12.808;2024-02-26T07:28:34;12.50;99.90
32839;DHT22;19182;41.820;12.808;2024-02-26T07:31:00;12.40;99.90
32839;DHT22;19182;41.820;12.808;2024-02-26T07:33:26;12.90;99.90
32839;DHT22;19182;41.820;12.808;2024-02-26T07:35:52;12.80;99.90
32839;DHT22;19182;41.820;12.808;2024-02-26T07:38:19;13.10;99.90
32839;DHT22;19182;41.820;12.808;2024-02-26T07:40:48;13.10;99.90
32839;DHT22;19182;41.820;12.808;2024-02-26T07:43:14;12.20;99.90
32839;DHT22;19182;41.820;12.808;2024-02-26T07:45:39;12.20;99.90
32839;DHT22;19182;41.820;12.808;2024-02-26T07:48:06;12.60;99.90
32839;DHT22;19182;41.820;12.808;2024-02-26T07:50:32;14.20;99.90
32839;DHT22;19182;41.820;12.808;2024-02-26T07:53:04;15.40;99.90
32839;DHT22;19182;41.820;12.808;2024-02-26T07:55:30;15.40;99.90
32839;DHT22;19182;41.820;12.808;2024-02-26T07:57:55;15.10;99.90
32839;DHT22;19182;41.820;12.808;2024-02-26T08:00:21;15.20;99.90
32839;DHT22;19182;41.820;12.808;2024-02-26T08:02:48;16.20;99.90
32839;DHT22;19182;41.820;12.808;2024-02-26T08:05:13;16.40;99.90
32839;DHT22;19182;41.820;12.808;2024-02-26T08:07:39;16.40;99.90
32839;DHT22;19182;41.820;12.808;2024-02-26T08:10:10;15.60;99.90
32839;DHT22;19182;41.820;12.808;2024-02-26T08:17:45;12.80;99.90
32839;DHT22;19182;41.820;12.808;2024-02-26T08:20:19;12.70;99.90
32839;DHT22;19182;41.820;12.808;2024-02-26T08:22:44;12.70;99.90
32839;DHT22;19182;41.820;12.808;2024-02-26T08:25:13;14.10;99.90
32839;DHT22;19182;41.820;12.808;2024-02-26T08:27:41;13.90;99.90
32839;DHT22;19182;41.820;12.808;2024-02-26T08:30:07;14.30;99.90
32839;DHT22;19182;41.820;12.808;2024-02-26T08:32:33;13.90;99.90
32839;DHT22;19182;41.820;12.808;2024-02-26T08:34:59;12.50;99.90
32839;DHT22;19182;41.820;12.808;2024-02-26T08:37:25;11.90;99.90
32839;DHT22;19182;41.820;12.808;2024-02-26T08:39:51;11.90;99.90
32839;DHT22;19182;41.820;12.808;2024-02-26T08:42:16;11.70;99.90
32839;DHT22;19182;41.820;12.808;2024-02-26T08:44:42;11.50;99.90
32839;DHT22;19182;41.820;12.808;2024-02-26T08:47:08;11.30;99.90
32839;DHT22;19182;41.820;12.808;2024-02-26T08:49:34;11.20;99.90
32839;DHT22;19182;41.820;12.808;2024-02-26T08:52:01;11.30;99.90
32839;DHT22;19182;41.820;12.808;2024-02-26T08:54:29;11.40;99.90
32839;DHT22;19182;41.820;12.808;2024-02-26T08:56:55;11.40;99.90
32839;DHT22;19182;41.820;12.808;2024-02-26T08:59:20;11.30;99.90
32839;DHT22;19182;41.820;12.808;2024-02-26T09:04:15;11.10;99.90
32839;DHT22;19182;41.820;12.808;2024-02-26T09:06:41;11.10;99.90
32839;DHT22;19182;41.820;12.808;2024-02-26T09:09:07;11.00;99.90
32839;DHT22;19182;41.820;12.808;2024-02-26T09:11:32;10.90;99.90
32839;DHT22;19182;41.820;12.808;2024-02-26T09:13:58;11.00;99.90
32839;DHT22;19182;41.820;12.808;2024-02-26T09:16:25;11.20;99.90
32839;DHT22;19182;41.820;12.808;2024-02-26T09:24:01;11.30;99.90
32839;DHT22;19182;41.820;12.808;2024-02-26T09:26:27;11.30;99.90
32839;DHT22;19182;41.820;12.808;2024-02-26T09:28:53;11.30;99.90
32839;DHT22;19182;41.820;12.808;2024-02-26T09:31:19;11.30;99.90
32839;DHT22;19182;41.820;12.808;2024-02-26T09:33:46;11.40;99.90
32839;DHT22;19182;41.820;12.808;2024-02-26T09:38:39;11.30;99.90
32839;DHT22;19182;41.820;12.808;2024-02-26T09:41:05;11.40;99.90
32839;DHT22;19182;41.820;12.808;2024-02-26T09:43:35;11.50;99.90
32839;DHT22;19182;41.820;12.808;2024-02-26T09:46:05;11.60;99.90
32839;DHT22;19182;41.820;12.808;2024-02-26T09:48:32;11.60;99.90
32839;DHT22;19182;41.820;12.808;2024-02-26T09:51:04;11.70;99.90
32839;DHT22;19182;41.820;12.808;2024-02-26T09:53:30;11.70;99.90
32839;DHT22;19182;41.820;12.808;2024-02-26T09:56:00;11.70;99.90
32839;DHT22;19182;41.820;12.808;2024-02-26T09:58:28;11.80;99.90
32839;DHT22;19182;41.820;12.808;2024-02-26T10:01:00;12.20;99.90
32839;DHT22;19182;41.820;12.808;2024-02-26T10:03:38;12.20;99.90
32839;DHT22;19182;41.820;12.808;2024-02-26T10:08:35;12.10;99.90
32839;DHT22;19182;41.820;12.808;2024-02-26T10:11:03;12.00;99.90
32839;DHT22;19182;41.820;12.808;2024-02-26T10:13:30;11.90;99.90
32839;DHT22;19182;41.820;12.808;2024-02-26T10:15:55;11.90;99.90
32839;DHT22;19182;41.820;12.808;2024-02-26T10:18:23;12.20;99.90
32839;DHT22;19182;41.820;12.808;2024-02-26T10:21:01;12.20;99.90
32839;DHT22;19182;41.820;12.808;2024-02-26T10:23:28;12.30;99.90
32839;DHT22;19182;41.820;12.808;2024-02-26T10:25:55;12.30;99.90
32839;DHT22;19182;41.820;12.808;2024-02-26T10:28:21;12.40;99.90
32839;DHT22;19182;41.820;12.808;2024-02-26T10:30:49;12.40;99.90
32839;DHT22;19182;41.820;12.808;2024-02-26T10:33:16;12.50;99.90
32839;DHT22;19182;41.820;12.808;2024-02-26T10:35:48;12.70;99.90
32839;DHT22;19182;41.820;12.808;2024-02-26T10:38:14;12.80;99.90
32839;DHT22;19182;41.820;12.808;2024-02-26T10:40:43;12.90;99.90
32839;DHT22;19182;41.820;12.808;2024-02-26T10:43:08;12.90;99.90
32839;DHT22;19182;41.820;12.808;2024-02-26T10:45:34;12.70;99.90
32839;DHT22;19182;41.820;12.808;2024-02-26T10:48:02;12.60;99.90
32839;DHT22;19182;41.820;12.808;2024-02-26T10:50:31;12.60;99.90
32839;DHT22;19182;41.820;12.808;2024-02-26T10:52:58;12.70;99.90
32839;DHT22;19182;41.820;12.808;2024-02-26T10:55:25;12.80;99.90
32839;DHT22;19182;41.820;12.808;2024-02-26T10:57:52;12.70;99.90
32839;DHT22;19182;41.820;12.808;2024-02-26T11:02:45;12.60;99.90
32839;DHT22;19182;41.820;12.808;2024-02-26T11:05:14;12.70;99.90
32839;DHT22;19182;41.820;12.808;2024-02-26T11:07:41;12.60;99.90
32839;DHT22;19182;41.820;12.808;2024-02-26T11:10:08;12.60;99.90
32839;DHT22;19182;41.820;12.808;2024-02-26T11:12:36;12.50;99.90
32839;DHT22;19182;41.820;12.808;2024-02-26T11:15:03;12.40;99.90
32839;DHT22;19182;41.820;12.808;2024-02-26T11:17:30;12.30;99.90
32839;DHT22;19182;41.820;12.808;2024-02-26T11:19:58;12.30;99.90
32839;DHT22;19182;41.820;12.808;2024-02-26T11:22:28;12.40;99.90
32839;DHT22;19182;41.820;12.808;2024-02-26T11:24:56;12.40;99.90
32839;DHT22;19182;41.820;12.808;2024-02-26T11:27:50;12.40;99.90
32839;DHT22;19182;41.820;12.808;2024-02-26T11:30:18;12.60;99.90
32839;DHT22;19182;41.820;12.808;2024-02-26T11:32:45;12.60;99.90
32839;DHT22;19182;41.820;12.808;2024-02-26T11:35:15;12.90;99.90
32839;DHT22;19182;41.820;12.808;2024-02-26T11:37:57;13.00;99.90
32839;DHT22;19182;41.820;12.808;2024-02-26T11:40:32;13.00;99.90
32839;DHT22;19182;41.820;12.808;2024-02-26T11:42:58;13.00;99.90
32839;DHT22;19182;41.820;12.808;2024-02-26T11:48:14;12.90;99.90
32839;DHT22;19182;41.820;12.808;2024-02-26T11:50:46;12.80;99.90
32839;DHT22;19182;41.820;12.808;2024-02-26T11:53:26;12.80;99.90
32839;DHT22;19182;41.820;12.808;2024-02-26T11:58:42;12.80;99.90
32839;DHT22;19182;41.820;12.808;2024-02-26T12:01:37;12.70;99.90
32839;DHT22;19182;41.820;12.808;2024-02-26T12:04:05;12.80;99.90
32839;DHT22;19182;41.820;12.808;2024-02-26T12:06:34;12.80;99.90
32839;DHT22;19182;41.820;12.808;2024-02-26T12:09:08;12.70;99.90
32839;DHT22;19182;41.820;12.808;2024-02-26T12:11:39;12.90;99.90
32839;DHT22;19182;41.820;12.808;2024-02-26T12:14:08;12.90;99.90
32839;DHT22;19182;41.820;12.808;2024-02-26T12:16:39;12.90;99.90
32839;DHT22;19182;41.820;12.808;2024-02-26T12:19:06;12.80;99.90
32839;DHT22;19182;41.820;12.808;2024-02-26T12:21:34;12.80;99.90
32839;DHT22;19182;41.820;12.808;2024-02-26T12:24:10;12.80;99.90
32839;DHT22;19182;41.820;12.808;2024-02-26T12:26:37;12.90;99.90
32839;DHT22;19182;41.820;12.808;2024-02-26T12:29:03;13.00;99.90
32839;DHT22;19182;41.820;12.808;2024-02-26T12:31:28;13.30;99.90
32839;DHT22;19182;41.820;12.808;2024-02-26T12:33:56;13.30;99.90
32839;DHT22;19182;41.820;12.808;2024-02-26T12:36:22;13.40;99.90
32839;DHT22;19182;41.820;12.808;2024-02-26T12:38:50;13.30;99.90
32839;DHT22;19182;41.820;12.808;2024-02-26T12:41:17;13.20;99.90
32839;DHT22;19182;41.820;12.808;2024-02-26T12:43:43;13.10;99.90
32839;DHT22;19182;41.820;12.808;2024-02-26T12:46:10;12.90;99.90
32839;DHT22;19182;41.820;12.808;2024-02-26T12:48:39;13.10;99.90
32839;DHT22;19182;41.820;12.808;2024-02-26T12:51:07;13.00;99.90
32839;DHT22;19182;41.820;12.808;2024-02-26T12:53:33;13.10;99.90
32839;DHT22;19182;41.820;12.808;2024-02-26T12:56:02;13.10;99.90
32839;DHT22;19182;41.820;12.808;2024-02-26T13:00:58;13.10;99.90
32839;DHT22;19182;41.820;12.808;2024-02-26T13:10:50;12.90;99.90
32839;DHT22;19182;41.820;12.808;2024-02-26T13:13:18;12.80;99.90
32839;DHT22;19182;41.820;12.808;2024-02-26T13:15:46;12.70;99.90
32839;DHT22;19182;41.820;12.808;2024-02-26T13:18:13;12.50;99.90
32839;DHT22;19182;41.820;12.808;2024-02-26T13:20:40;12.50;99.90
32839;DHT22;19182;41.820;12.808;2024-02-26T13:23:12;12.50;99.90
32839;DHT22;19182;41.820;12.808;2024-02-26T13:28:15;12.40;99.90
32839;DHT22;19182;41.820;12.808;2024-02-26T13:30:56;12.40;99.90
32839;DHT22;19182;41.820;12.808;2024-02-26T13:33:23;12.40;99.90
32839;DHT22;19182;41.820;12.808;2024-02-26T13:35:50;12.40;99.90
32839;DHT22;19182;41.820;12.808;2024-02-26T13:48:15;12.20;99.90
32839;DHT22;19182;41.820;12.808;2024-02-26T13:50:42;12.10;99.90
32839;DHT22;19182;41.820;12.808;2024-02-26T13:53:12;12.10;99.90
32839;DHT22;19182;41.820;12.808;2024-02-26T13:55:40;12.10;99.90
32839;DHT22;19182;41.820;12.808;2024-02-26T13:58:07;12.10;99.90
32839;DHT22;19182;41.820;12.808;2024-02-26T14:00:35;12.20;99.90
32839;DHT22;19182;41.820;12.808;2024-02-26T14:03:06;12.10;99.90
32839;DHT22;19182;41.820;12.808;2024-02-26T14:05:35;12.10;99.90
32839;DHT22;19182;41.820;12.808;2024-02-26T14:10:27;12.00;99.90
32839;DHT22;19182;41.820;12.808;2024-02-26T14:12:54;11.90;99.90
32839;DHT22;19182;41.820;12.808;2024-02-26T14:15:20;12.00;99.90
32839;DHT22;19182;41.820;12.808;2024-02-26T14:17:46;11.90;99.90
32839;DHT22;19182;41.820;12.808;2024-02-26T14:20:19;11.80;99.90
32839;DHT22;19182;41.820;12.808;2024-02-26T14:22:44;11.70;99.90
32839;DHT22;19182;41.820;12.808;2024-02-26T14:25:10;11.80;99.90
32839;DHT22;19182;41.820;12.808;2024-02-26T14:27:40;11.90;99.90
32839;DHT22;19182;41.820;12.808;2024-02-26T14:30:06;11.80;99.90
32839;DHT22;19182;41.820;12.808;2024-02-26T14:32:32;11.80;99.90
32839;DHT22;19182;41.820;12.808;2024-02-26T14:35:01;11.80;99.90
32839;DHT22;19182;41.820;12.808;2024-02-26T14:37:27;11.90;99.90
32839;DHT22;19182;41.820;12.808;2024-02-26T14:39:52;11.80;99.90
32839;DHT22;19182;41.820;12.808;2024-02-26T14:42:18;11.80;99.90
32839;DHT22;19182;41.820;12.808;2024-02-26T14:44:44;11.80;99.90
32839;DHT22;19182;41.820;12.808;2024-02-26T14:47:13;11.80;99.90
32839;DHT22;19182;41.820;12.808;2024-02-26T14:49:41;11.80;99.90
32839;DHT22;19182;41.820;12.808;2024-02-26T14:52:11;11.80;99.90
32839;DHT22;19182;41.820;12.808;2024-02-26T14:54:40;11.70;99.90
32839;DHT22;19182;41.820;12.808;2024-02-26T14:57:06;11.60;99.90
32839;DHT22;19182;41.820;12.808;2024-02-26T14:59:33;11.50;99.90
32839;DHT22;19182;41.820;12.808;2024-02-26T15:01:59;11.60;99.90
32839;DHT22;19182;41.820;12.808;2024-02-26T15:04:31;11.60;99.90
32839;DHT22;19182;41.820;12.808;2024-02-26T15:06:56;11.60;99.90
32839;DHT22;19182;41.820;12.808;2024-02-26T15:09:22;11.60;99.90
32839;DHT22;19182;41.820;12.808;2024-02-26T15:11:48;11.50;99.90
32839;DHT22;19182;41.820;12.808;2024-02-26T15:14:14;11.50;99.90
32839;DHT22;19182;41.820;12.808;2024-02-26T15:16:40;11.60;99.90
32839;DHT22;19182;41.820;12.808;2024-02-26T15:19:06;11.40;99.90
32839;DHT22;19182;41.820;12.808;2024-02-26T15:21:32;11.40;99.90
32839;DHT22;19182;41.820;12.808;2024-02-26T15:24:06;11.40;99.90
32839;DHT22;19182;41.820;12.808;2024-02-26T15:26:32;11.30;99.90
32839;DHT22;19182;41.820;12.808;2024-02-26T15:28:58;11.40;99.90
32839;DHT22;19182;41.820;12.808;2024-02-26T15:31:24;11.30;99.90
32839;DHT22;19182;41.820;12.808;2024-02-26T15:33:50;11.30;99.90
32839;DHT22;19182;41.820;12.808;2024-02-26T15:36:16;11.10;99.90
32839;DHT22;19182;41.820;12.808;2024-02-26T15:38:41;11.20;99.90
32839;DHT22;19182;41.820;12.808;2024-02-26T15:41:12;11.20;99.90
32839;DHT22;19182;41.820;12.808;2024-02-26T15:43:38;11.20;99.90
32839;DHT22;19182;41.820;12.808;2024-02-26T15:46:04;11.20;99.90
32839;DHT22;19182;41.820;12.808;2024-02-26T15:48:31;11.10;99.90
32839;DHT22;19182;41.820;12.808;2024-02-26T15:50:57;10.90;99.90
32839;DHT22;19182;41.820;12.808;2024-02-26T15:53:24;10.90;99.90
32839;DHT22;19182;41.820;12.808;2024-02-26T15:55:50;10.30;99.90
32839;DHT22;19182;41.820;12.808;2024-02-26T15:58:16;10.00;99.90
32839;DHT22;19182;41.820;12.808;2024-02-26T16:05:37;9.50;99.90
32839;DHT22;19182;41.820;12.808;2024-02-26T16:17:55;9.30;99.90
32839;DHT22;19182;41.820;12.808;2024-02-26T17:29:18;8.90;99.90
32839;DHT22;19182;41.820;12.808;2024-02-26T17:48:58;8.80;99.90
32839;DHT22;19182;41.820;12.808;2024-02-26T21:10:05;8.60;99.90
32839;DHT22;19182;41.820;12.808;2024-02-26T21:17:27;8.70;99.90
32839;DHT22;19182;41.820;12.808;2024-02-26T21:24:47;8.60;99.90
32839;DHT22;19182;41.820;12.808;2024-02-26T21:54:15;8.50;99.90
32839;DHT22;19182;41.820;12.808;2024-02-26T22:21:13;8.60;99.90
32839;DHT22;19182;41.820;12.808;2024-02-26T22:58:01;8.60;99.90
32839;DHT22;19182;41.820;12.808;2024-02-26T23:07:53;8.60;99.90
32839;DHT22;19182;41.820;12.808;2024-02-26T23:47:13;8.70;99.90
